Flight Briefing for CPX786

Departure Arrival
Kingsford Smith International Airport (YSSY)
Click to view FAA NOTAMS
Chek Lap Kok International (VHHH)
Click to view FAA NOTAMS
Departure Time Arrival Time
N/A N/A
Aircraft Distance
B747-400BCF 3997nm
Departure METAR Arrival METAR
YSSY 232300Z 30008KT CAVOK 17/12 Q1024 NOSIG VHHH 232300Z 09014KT 9999 FEW010 SCT030 26/23 Q1011 TEMPO 4000 SHRA
Suggested Route
RIC H202 AGETA R340 AMN A461 ZAM A583 SABNO V541 DOVAR V541 BETTY


View recent IFR Routes data
Notes



Charts and Procedures

Charts for YSSY
No chart available
Charts for VHHH
No chart available

Windy.com Weather Map